Terminal Aerodrome Forecast
Issued by NWS

Home | Current Version | Previous Version | Text Only | Print | Product List | Glossary On
Versions: 1 2 3 4 5 6 7 8 9 10 11 12 13 14 15 16 17 18 19 20 21 22 23 24 25
328
FTUS46 KSGX 181739
TAFSAN
TAF
KSAN 181739Z 1818/1924 VRB04KT P6SM SCT060 BKN250
     FM182000 25010KT P6SM SCT015 SCT250
     FM190300 23007KT P6SM SCT020
     FM190600 25010KT P6SM VCSH BKN020 OVC035
     FM190900 25015G25KT P6SM VCSH BKN025 BKN035
     FM191400 29020G28KT P6SM BKN035=

USA.gov is the U.S. government's official web portal to all federal, state and local government web resources and services.